Bremerton, Washington
Current Conditions -  °F | °C
As of 11:55 AM on Saturday 25 Oct 2014 (Local Time) from KPWT Reporting Station
Scattered Clouds Scattered Clouds  
Wind Chill: 54°   Ceiling: Unl
Heat Index: 54°   Visibility: 10mi
Dew Point: 52°   Wind: 6mph
Humidity: 94%   Direction: 340°NNW
Pressure: 29.41"   Gusts: NA
Location:  47.57°N, 122.62°W
Report Text: KPWT 251855Z AUTO 34005KT 10SM FEW035 SCT044 12/11 A2941 RMK AO1 P0002
Loading
Personal Weather Stations






























Interactive Weather Map
Tropical Storm Tracking
New forecast layout! Learn more

10-Day Weather Forecast

Advertisements
Track Severe Weather on mobile